createdAt,value
2023-04-11T00:00:36.130Z,99.90
2023-04-11T00:03:04.201Z,99.90
2023-04-11T00:05:32.318Z,99.90
2023-04-11T00:08:00.635Z,99.90
2023-04-11T00:10:29.882Z,99.90
2023-04-11T00:12:57.703Z,99.90
2023-04-11T00:15:26.659Z,99.90
2023-04-11T00:17:55.864Z,99.90
2023-04-11T00:20:23.742Z,99.90
2023-04-11T00:22:53.854Z,99.90
2023-04-11T00:25:21.820Z,99.90
2023-04-11T00:27:51.118Z,99.90
2023-04-11T00:30:18.978Z,99.90
2023-04-11T00:32:47.553Z,99.90
2023-04-11T00:35:15.935Z,99.90
2023-04-11T00:37:45.483Z,99.90
2023-04-11T00:40:17.544Z,99.90
2023-04-11T00:42:45.412Z,99.90
2023-04-11T00:45:15.241Z,99.90
2023-04-11T00:47:43.356Z,99.90
2023-04-11T00:50:14.085Z,99.90
2023-04-11T00:52:43.592Z,99.90
2023-04-11T00:55:11.746Z,99.90
2023-04-11T00:57:39.653Z,99.90
2023-04-11T01:00:10.417Z,99.90
2023-04-11T01:02:43.408Z,99.90
2023-04-11T01:05:12.974Z,99.90
2023-04-11T01:07:44.239Z,99.90
2023-04-11T01:10:13.532Z,99.90
2023-04-11T01:12:42.036Z,99.90
2023-04-11T01:15:10.726Z,99.90
2023-04-11T01:17:41.691Z,99.90
2023-04-11T01:20:11.580Z,99.90
2023-04-11T01:22:41.232Z,99.90
2023-04-11T01:25:11.123Z,99.90
2023-04-11T01:27:38.968Z,99.90
2023-04-11T01:30:08.668Z,99.90
2023-04-11T01:32:36.662Z,99.90
2023-04-11T01:35:05.187Z,99.90
2023-04-11T01:37:33.113Z,99.90
2023-04-11T01:40:01.416Z,99.90
2023-04-11T01:42:33.481Z,99.90
2023-04-11T01:45:01.920Z,99.90
2023-04-11T01:47:29.820Z,99.90
2023-04-11T01:49:57.782Z,99.90
2023-04-11T01:52:25.649Z,99.90
2023-04-11T01:54:53.479Z,99.90
2023-04-11T01:57:21.299Z,99.90
2023-04-11T01:59:50.845Z,99.90
2023-04-11T02:02:18.813Z,99.90
2023-04-11T02:04:46.686Z,99.90
2023-04-11T02:07:14.674Z,99.90
2023-04-11T02:09:42.492Z,99.90
2023-04-11T02:12:10.353Z,99.90
2023-04-11T02:14:43.737Z,99.90
2023-04-11T02:17:14.074Z,99.90
2023-04-11T02:19:45.182Z,99.90
2023-04-11T02:22:13.102Z,99.90
2023-04-11T02:24:41.430Z,99.90
2023-04-11T02:27:10.416Z,99.90
2023-04-11T02:29:38.307Z,99.90
2023-04-11T02:32:06.399Z,99.90
2023-04-11T02:34:35.786Z,99.90
2023-04-11T02:37:03.905Z,99.90
2023-04-11T02:39:31.854Z,99.90
2023-04-11T02:41:59.661Z,99.90
2023-04-11T02:44:29.268Z,99.90
2023-04-11T02:46:57.199Z,99.90
2023-04-11T02:49:25.028Z,99.90
2023-04-11T02:51:54.169Z,99.90
2023-04-11T02:54:21.993Z,99.90
2023-04-11T02:56:49.813Z,99.90
2023-04-11T02:59:17.640Z,99.90
2023-04-11T03:01:46.068Z,99.90
2023-04-11T03:04:13.952Z,99.90
2023-04-11T03:06:41.777Z,99.90
2023-04-11T03:09:11.724Z,99.90
2023-04-11T03:11:39.536Z,99.90
2023-04-11T03:14:07.352Z,99.90
2023-04-11T03:16:35.737Z,99.90
2023-04-11T03:19:03.595Z,99.90
2023-04-11T03:21:32.019Z,99.90
2023-04-11T03:23:59.821Z,99.90
2023-04-11T03:26:29.052Z,99.90
2023-04-11T03:28:57.341Z,99.90
2023-04-11T03:31:25.758Z,99.90
2023-04-11T03:33:53.636Z,99.90
2023-04-11T03:36:22.450Z,99.90
2023-04-11T03:38:50.306Z,99.90
2023-04-11T03:41:19.357Z,99.90
2023-04-11T03:43:48.514Z,99.90
2023-04-11T03:46:16.418Z,99.90
2023-04-11T03:48:45.695Z,99.90
2023-04-11T03:51:13.575Z,99.90
2023-04-11T03:53:41.426Z,99.90
2023-04-11T03:56:10.512Z,99.90
2023-04-11T03:58:38.351Z,99.90
2023-04-11T04:01:07.904Z,99.90
2023-04-11T04:03:36.317Z,99.90
2023-04-11T04:06:04.592Z,99.90
2023-04-11T04:08:32.592Z,99.90
2023-04-11T04:11:00.473Z,99.90
2023-04-11T04:13:28.700Z,99.90
2023-04-11T04:15:58.079Z,99.90
2023-04-11T04:18:27.289Z,99.90
2023-04-11T04:20:55.091Z,99.90
2023-04-11T04:23:23.855Z,99.90
2023-04-11T04:25:52.181Z,99.90
2023-04-11T04:28:22.437Z,99.90
2023-04-11T04:30:54.062Z,99.90
2023-04-11T04:33:22.096Z,99.90
2023-04-11T04:35:52.290Z,99.90
2023-04-11T04:38:20.208Z,99.90
2023-04-11T04:40:50.293Z,99.90
2023-04-11T04:43:23.497Z,99.90
2023-04-11T04:45:51.497Z,99.90
2023-04-11T04:48:19.339Z,99.90
2023-04-11T04:50:47.186Z,99.90
2023-04-11T04:53:16.359Z,99.90
2023-04-11T04:55:44.199Z,99.90
2023-04-11T04:58:12.071Z,99.90
2023-04-11T05:00:40.952Z,99.90
2023-04-11T05:03:10.776Z,99.90
2023-04-11T05:05:38.728Z,99.90
2023-04-11T05:08:06.664Z,99.90
2023-04-11T05:10:35.824Z,99.90
2023-04-11T05:13:03.674Z,99.90
2023-04-11T05:15:31.464Z,99.90
2023-04-11T05:17:59.334Z,99.90
2023-04-11T05:20:29.671Z,99.90
2023-04-11T05:22:57.547Z,99.90
2023-04-11T05:25:25.967Z,99.90
2023-04-11T05:27:55.120Z,99.90
2023-04-11T05:30:23.298Z,99.90
2023-04-11T05:32:51.208Z,99.90
2023-04-11T05:35:19.127Z,99.90
2023-04-11T05:37:46.999Z,99.90
2023-04-11T05:40:14.823Z,99.90
2023-04-11T05:42:43.084Z,99.90
2023-04-11T05:45:12.795Z,99.90
2023-04-11T05:47:40.667Z,99.90
2023-04-11T05:50:09.595Z,99.90
2023-04-11T05:52:37.425Z,99.90
2023-04-11T05:55:05.991Z,99.90
2023-04-11T05:57:33.844Z,99.90
2023-04-11T06:00:04.495Z,99.90
2023-04-11T06:02:34.111Z,99.90
2023-04-11T06:05:03.444Z,99.90
2023-04-11T06:07:32.402Z,99.90
2023-04-11T06:10:00.652Z,99.90
2023-04-11T06:12:29.626Z,99.90
2023-04-11T06:14:57.429Z,99.90
2023-04-11T06:17:25.369Z,99.90
2023-04-11T06:19:54.572Z,99.90
2023-04-11T06:22:22.367Z,99.90
2023-04-11T06:24:50.163Z,99.90
2023-04-11T06:27:17.986Z,99.90
2023-04-11T06:29:45.822Z,99.90
2023-04-11T06:32:13.759Z,99.90
2023-04-11T06:34:41.685Z,99.90
2023-04-11T06:37:10.941Z,99.90
2023-04-11T06:39:38.950Z,99.90
2023-04-11T06:42:06.851Z,99.90
2023-04-11T06:44:34.752Z,99.90
2023-04-11T06:47:03.161Z,99.90
2023-04-11T06:49:31.287Z,99.90
2023-04-11T06:51:59.475Z,99.90
2023-04-11T06:54:28.704Z,99.90
2023-04-11T06:56:57.125Z,99.90
2023-04-11T06:59:25.018Z,99.90
2023-04-11T07:01:52.988Z,99.90
2023-04-11T07:04:21.007Z,99.90
2023-04-11T07:06:48.936Z,99.90
2023-04-11T07:09:16.783Z,99.90
2023-04-11T07:11:46.204Z,99.90
2023-04-11T07:14:14.016Z,99.90
2023-04-11T07:16:41.921Z,99.90
2023-04-11T07:19:09.822Z,99.90
2023-04-11T07:21:38.242Z,99.90
2023-04-11T07:24:06.665Z,99.90
2023-04-11T07:26:35.935Z,99.90
2023-04-11T07:29:06.080Z,99.90
2023-04-11T07:31:35.826Z,99.90
2023-04-11T07:34:03.719Z,99.90
2023-04-11T07:36:31.565Z,99.90
2023-04-11T07:39:00.784Z,99.90
2023-04-11T07:41:28.620Z,99.90
2023-04-11T07:43:56.608Z,99.90
2023-04-11T07:46:25.979Z,99.90
2023-04-11T07:48:53.774Z,99.90
2023-04-11T07:51:21.566Z,99.90
2023-04-11T07:53:49.413Z,99.90
2023-04-11T07:56:17.226Z,99.90
2023-04-11T07:58:45.102Z,99.90
2023-04-11T08:01:21.632Z,99.90
2023-04-11T08:03:50.974Z,99.90
2023-04-11T08:06:18.861Z,99.90
2023-04-11T08:08:47.490Z,99.90
2023-04-11T08:11:15.443Z,99.90
2023-04-11T08:13:43.301Z,99.90
2023-04-11T08:16:14.890Z,99.90
2023-04-11T08:18:45.607Z,99.90
2023-04-11T08:21:14.979Z,99.90
2023-04-11T08:23:42.944Z,99.90
2023-04-11T08:26:12.716Z,99.90
2023-04-11T08:28:42.939Z,99.90
2023-04-11T08:31:12.602Z,99.90
2023-04-11T08:33:41.008Z,99.90
2023-04-11T08:36:10.340Z,99.90
2023-04-11T08:38:40.927Z,99.90
2023-04-11T08:41:09.225Z,99.90
2023-04-11T08:43:38.847Z,99.90
2023-04-11T08:46:07.695Z,99.90
2023-04-11T08:48:35.708Z,99.90
2023-04-11T08:51:03.551Z,99.90
2023-04-11T08:53:32.022Z,99.90
2023-04-11T08:56:01.290Z,99.90
2023-04-11T08:58:30.012Z,99.90
2023-04-11T09:00:57.888Z,99.90
2023-04-11T09:03:25.786Z,99.90
2023-04-11T09:05:54.365Z,99.90
2023-04-11T09:08:22.198Z,99.90
2023-04-11T09:10:49.974Z,99.90
2023-04-11T09:13:25.358Z,99.90
2023-04-11T09:16:12.067Z,99.90
2023-04-11T09:18:41.303Z,99.90
2023-04-11T09:21:10.801Z,99.90
2023-04-11T09:23:39.339Z,99.90
2023-04-11T09:26:10.799Z,99.90
2023-04-11T09:28:43.220Z,99.90
2023-04-11T09:31:13.059Z,99.90
2023-04-11T09:33:53.467Z,99.90
2023-04-11T09:36:23.350Z,99.90
2023-04-11T09:38:52.038Z,99.90
2023-04-11T09:41:32.008Z,99.90
2023-04-11T09:44:01.969Z,99.90
2023-04-11T09:46:30.017Z,99.90
2023-04-11T09:48:58.098Z,99.90
2023-04-11T09:51:35.151Z,99.90
2023-04-11T09:54:05.529Z,99.90
2023-04-11T09:56:35.201Z,99.90
2023-04-11T09:59:05.453Z,99.90
2023-04-11T10:01:33.579Z,99.90
2023-04-11T10:04:01.824Z,99.90
2023-04-11T10:06:34.106Z,99.90
2023-04-11T10:09:10.942Z,99.90
2023-04-11T10:11:42.075Z,99.90
2023-04-11T10:14:32.677Z,99.90
2023-04-11T10:17:24.805Z,99.90
2023-04-11T10:19:56.481Z,99.90
2023-04-11T10:22:59.098Z,99.90
2023-04-11T10:25:27.439Z,99.90
2023-04-11T10:28:00.528Z,99.90
2023-04-11T10:31:01.615Z,99.90
2023-04-11T10:33:32.072Z,99.90
2023-04-11T10:36:03.294Z,99.90
2023-04-11T10:38:49.817Z,99.90
2023-04-11T10:41:27.572Z,99.90
2023-04-11T10:44:14.725Z,99.90
2023-04-11T10:46:46.606Z,99.90
2023-04-11T10:49:33.489Z,99.90
2023-04-11T10:52:24.162Z,99.90
2023-04-11T10:54:53.434Z,99.80
2023-04-11T10:57:22.775Z,98.40
2023-04-11T11:00:15.788Z,97.30
2023-04-11T11:02:43.993Z,95.90
2023-04-11T11:05:24.839Z,95.50
2023-04-11T11:07:54.110Z,94.10
2023-04-11T11:10:42.056Z,92.80
2023-04-11T11:13:10.694Z,91.60
2023-04-11T11:15:38.973Z,89.60
2023-04-11T11:18:09.658Z,90.30
2023-04-11T11:20:39.041Z,92.40
2023-04-11T11:23:08.338Z,91.80
2023-04-11T11:25:36.399Z,93.00
2023-04-11T11:28:06.031Z,93.40
2023-04-11T11:30:34.646Z,92.60
2023-04-11T11:33:17.233Z,92.70
2023-04-11T11:35:52.993Z,93.00
2023-04-11T11:38:22.041Z,94.60
2023-04-11T11:40:50.343Z,94.00
2023-04-11T11:43:18.196Z,94.90
2023-04-11T11:45:46.561Z,97.80
2023-04-11T11:48:21.866Z,99.60
2023-04-11T11:50:56.886Z,98.50
2023-04-11T11:53:26.007Z,99.80
2023-04-11T11:55:54.402Z,96.60
2023-04-11T11:58:23.390Z,95.10
2023-04-11T12:00:52.439Z,93.90
2023-04-11T12:03:23.535Z,93.20
2023-04-11T12:05:57.820Z,91.70
2023-04-11T12:08:25.745Z,91.10
2023-04-11T12:10:53.631Z,89.70
2023-04-11T12:13:23.633Z,89.80
2023-04-11T12:15:53.130Z,83.80
2023-04-11T12:18:22.118Z,83.60
2023-04-11T12:20:50.192Z,85.20
2023-04-11T12:23:19.578Z,85.00
2023-04-11T12:25:48.037Z,86.40
2023-04-11T12:28:16.301Z,88.70
2023-04-11T12:30:44.165Z,91.20
2023-04-11T12:33:12.012Z,95.80
2023-04-11T12:35:40.164Z,96.60
2023-04-11T12:38:08.064Z,97.30
2023-04-11T12:40:37.258Z,99.50
2023-04-11T12:43:05.285Z,95.30
2023-04-11T12:45:33.554Z,94.80
2023-04-11T12:48:01.413Z,93.90
2023-04-11T12:50:29.405Z,93.90
2023-04-11T12:52:57.196Z,90.80
2023-04-11T12:55:25.296Z,85.40
2023-04-11T12:57:54.471Z,83.70
2023-04-11T13:00:22.617Z,87.30
2023-04-11T13:02:50.589Z,83.00
2023-04-11T13:05:18.873Z,82.60
2023-04-11T13:07:46.855Z,82.20
2023-04-11T13:10:15.796Z,79.60
2023-04-11T13:12:45.757Z,79.00
2023-04-11T13:15:16.942Z,79.30
2023-04-11T13:17:45.048Z,78.90
2023-04-11T13:20:13.544Z,79.30
2023-04-11T13:22:42.273Z,79.60
2023-04-11T13:25:10.804Z,78.50
2023-04-11T13:27:39.683Z,76.50
2023-04-11T13:30:09.837Z,73.20
2023-04-11T13:32:40.259Z,73.50
2023-04-11T13:35:09.214Z,76.50
2023-04-11T13:37:37.079Z,72.90
2023-04-11T13:40:08.246Z,74.20
2023-04-11T13:42:36.074Z,72.40
2023-04-11T13:45:04.432Z,72.30
2023-04-11T13:47:32.390Z,72.00
2023-04-11T13:50:01.726Z,69.10
2023-04-11T13:52:29.566Z,69.80
2023-04-11T13:54:57.373Z,68.80
2023-04-11T13:57:25.361Z,70.40
2023-04-11T13:59:53.151Z,69.40
2023-04-11T14:02:21.130Z,71.50
2023-04-11T14:04:49.452Z,69.00
2023-04-11T14:07:18.615Z,70.60
2023-04-11T14:09:46.429Z,68.50
2023-04-11T14:12:14.244Z,68.90
2023-04-11T14:14:42.056Z,68.80
2023-04-11T14:17:09.949Z,68.30
2023-04-11T14:19:37.818Z,68.60
2023-04-11T14:22:06.180Z,69.60
2023-04-11T14:24:35.722Z,71.00
2023-04-11T14:27:04.182Z,71.70
2023-04-11T14:29:34.386Z,72.70
2023-04-11T14:32:02.640Z,74.00
2023-04-11T14:34:30.867Z,74.40
2023-04-11T14:36:58.751Z,76.40
2023-04-11T14:39:26.684Z,78.00
2023-04-11T14:41:56.321Z,77.10
2023-04-11T14:44:24.276Z,76.80
2023-04-11T14:46:52.109Z,75.60
2023-04-11T14:49:19.953Z,75.30
2023-04-11T14:51:47.738Z,77.10
2023-04-11T14:54:15.716Z,77.30
2023-04-11T14:56:43.866Z,77.70
2023-04-11T14:59:13.284Z,77.30
2023-04-11T15:01:41.272Z,76.60
2023-04-11T15:04:09.480Z,75.20
2023-04-11T15:06:37.525Z,77.40
2023-04-11T15:09:05.676Z,79.60
2023-04-11T15:11:33.586Z,78.00
2023-04-11T15:14:01.427Z,79.70
2023-04-11T15:16:30.693Z,76.30
2023-04-11T15:18:58.566Z,75.10
2023-04-11T15:21:27.374Z,76.20
2023-04-11T15:23:56.171Z,74.90
2023-04-11T15:26:24.511Z,74.90
2023-04-11T15:28:52.385Z,74.50
2023-04-11T15:31:25.374Z,75.20
2023-04-11T15:33:57.120Z,75.40
2023-04-11T15:36:25.194Z,73.60
2023-04-11T15:38:53.054Z,73.40
2023-04-11T15:41:21.110Z,73.90
2023-04-11T15:43:49.549Z,72.30
2023-04-11T15:46:17.428Z,74.60
2023-04-11T15:48:45.798Z,73.00
2023-04-11T15:51:15.025Z,73.70
2023-04-11T15:53:43.168Z,72.60
2023-04-11T15:56:13.419Z,73.30
2023-04-11T15:58:43.705Z,72.10
2023-04-11T16:01:22.616Z,72.20
2023-04-11T16:03:51.474Z,73.50
2023-04-11T16:06:20.990Z,73.40
2023-04-11T16:08:48.794Z,73.40
2023-04-11T16:11:16.632Z,72.30
2023-04-11T16:13:45.104Z,72.10
2023-04-11T16:16:12.984Z,72.40
2023-04-11T16:18:40.951Z,72.70
2023-04-11T16:21:14.181Z,72.70
2023-04-11T16:23:43.655Z,73.60
2023-04-11T16:26:11.486Z,73.70
2023-04-11T16:28:41.963Z,75.20
2023-04-11T16:31:10.150Z,77.50
2023-04-11T16:33:38.030Z,75.80
2023-04-11T16:36:06.292Z,77.80
2023-04-11T16:38:34.158Z,79.20
2023-04-11T16:41:10.050Z,76.90
2023-04-11T16:43:37.884Z,78.20
2023-04-11T16:46:07.375Z,79.30
2023-04-11T16:48:35.256Z,79.40
2023-04-11T16:51:03.450Z,82.00
2023-04-11T16:53:31.273Z,80.60
2023-04-11T16:55:59.138Z,84.20
2023-04-11T16:58:28.546Z,84.20
2023-04-11T17:00:56.368Z,85.00
2023-04-11T17:03:24.509Z,89.00
2023-04-11T17:05:52.603Z,85.10
2023-04-11T17:08:20.726Z,85.20
2023-04-11T17:10:48.510Z,85.70
2023-04-11T17:13:18.476Z,87.70
2023-04-11T17:15:47.667Z,88.10
2023-04-11T17:18:15.621Z,89.50
2023-04-11T17:20:46.564Z,89.80
2023-04-11T17:23:14.566Z,88.20
2023-04-11T17:25:42.418Z,87.70
2023-04-11T17:28:10.369Z,90.00
2023-04-11T17:30:38.189Z,90.30
2023-04-11T17:33:07.930Z,91.50
2023-04-11T17:35:35.935Z,93.20
2023-04-11T17:38:03.747Z,92.70
2023-04-11T17:40:31.884Z,92.50
2023-04-11T17:42:59.850Z,92.30
2023-04-11T17:45:28.077Z,90.80
2023-04-11T17:48:01.196Z,93.00
2023-04-11T17:50:30.698Z,93.40
2023-04-11T17:52:58.552Z,92.50
2023-04-11T17:55:26.585Z,94.20
2023-04-11T17:57:54.418Z,94.80
2023-04-11T18:00:23.292Z,95.20
2023-04-11T18:02:57.583Z,95.40
2023-04-11T18:05:27.538Z,97.00
2023-04-11T18:07:58.860Z,96.20
2023-04-11T18:10:28.310Z,97.30
2023-04-11T18:12:57.748Z,95.30
2023-04-11T18:15:26.845Z,97.30
2023-04-11T18:17:55.103Z,97.60
2023-04-11T18:20:23.126Z,98.40
2023-04-11T18:22:54.697Z,98.60
2023-04-11T18:25:24.286Z,99.40
2023-04-11T18:27:52.111Z,99.10
2023-04-11T18:30:20.051Z,98.80
2023-04-11T18:32:50.119Z,99.90
2023-04-11T18:35:18.915Z,99.90
2023-04-11T18:37:47.209Z,99.90
2023-04-11T18:40:15.619Z,99.90
2023-04-11T18:42:46.646Z,99.90
2023-04-11T18:45:15.431Z,99.90
2023-04-11T18:47:46.748Z,99.90
2023-04-11T18:50:14.750Z,99.90
2023-04-11T18:52:44.761Z,99.90
2023-04-11T18:55:13.610Z,99.90
2023-04-11T18:57:43.013Z,99.90
2023-04-11T19:00:18.602Z,99.90
2023-04-11T19:02:50.098Z,99.90
2023-04-11T19:05:19.301Z,99.90
2023-04-11T19:07:47.407Z,99.90
2023-04-11T19:10:15.381Z,99.90
2023-04-11T19:12:43.339Z,99.90
2023-04-11T19:15:13.478Z,99.90
2023-04-11T19:17:41.577Z,99.90
2023-04-11T19:20:12.437Z,99.90
2023-04-11T19:22:41.017Z,99.90
2023-04-11T19:25:11.039Z,99.90
2023-04-11T19:27:41.209Z,99.90
2023-04-11T19:30:10.485Z,99.90
2023-04-11T19:32:43.063Z,99.90
2023-04-11T19:35:11.991Z,99.90
2023-04-11T19:37:40.138Z,99.90
2023-04-11T19:40:10.781Z,99.90
2023-04-11T19:42:39.826Z,99.90
2023-04-11T19:45:11.213Z,99.90
2023-04-11T19:47:41.002Z,99.90
2023-04-11T19:50:12.851Z,99.90
2023-04-11T19:52:41.302Z,99.90
2023-04-11T19:55:10.269Z,99.90
2023-04-11T19:57:39.997Z,99.90
2023-04-11T20:00:14.348Z,99.90
2023-04-11T20:02:45.589Z,99.90
2023-04-11T20:05:14.977Z,99.90
2023-04-11T20:07:43.850Z,99.90
2023-04-11T20:10:12.418Z,99.90
2023-04-11T20:12:40.516Z,99.90
2023-04-11T20:15:09.721Z,99.90
2023-04-11T20:17:37.593Z,99.90
2023-04-11T20:20:08.738Z,99.90
2023-04-11T20:22:38.369Z,99.90
2023-04-11T20:25:07.946Z,99.90
2023-04-11T20:27:36.251Z,99.90
2023-04-11T20:30:07.748Z,99.90
2023-04-11T20:32:36.046Z,99.90
2023-04-11T20:35:04.998Z,99.90
2023-04-11T20:37:37.096Z,99.90
2023-04-11T20:40:07.616Z,99.90
2023-04-11T20:42:39.695Z,99.90
2023-04-11T20:45:10.049Z,99.90
2023-04-11T20:47:38.258Z,99.90
2023-04-11T20:50:07.333Z,99.90
2023-04-11T20:52:37.507Z,99.90
2023-04-11T20:55:06.162Z,99.90
2023-04-11T20:57:34.164Z,99.90
2023-04-11T21:00:02.801Z,99.90
2023-04-11T21:02:32.359Z,99.90
2023-04-11T21:05:00.294Z,99.90
2023-04-11T21:07:28.105Z,99.90
2023-04-11T21:09:58.546Z,99.90
2023-04-11T21:12:26.424Z,99.90
2023-04-11T21:14:54.293Z,99.90
2023-04-11T21:17:22.094Z,99.90
2023-04-11T21:19:49.889Z,99.90
2023-04-11T21:22:17.771Z,99.90
2023-04-11T21:24:45.581Z,99.90
2023-04-11T21:27:14.722Z,99.90
2023-04-11T21:29:42.568Z,99.90
2023-04-11T21:32:10.410Z,99.90
2023-04-11T21:34:38.884Z,99.90
2023-04-11T21:37:06.693Z,99.90
2023-04-11T21:39:34.511Z,99.90
2023-04-11T21:42:02.350Z,99.90
2023-04-11T21:44:31.498Z,99.90
2023-04-11T21:46:59.552Z,99.90
2023-04-11T21:49:27.376Z,99.90
2023-04-11T21:51:55.311Z,99.90
2023-04-11T21:54:23.107Z,99.90
2023-04-11T21:56:50.891Z,99.90
2023-04-11T21:59:18.767Z,99.90
2023-04-11T22:02:03.536Z,99.90
2023-04-11T22:07:02.477Z,99.90
2023-04-11T22:09:30.276Z,99.90
2023-04-11T22:11:58.075Z,99.90
2023-04-11T22:14:28.600Z,99.90
2023-04-11T22:16:58.152Z,99.90
2023-04-11T22:19:28.518Z,99.90
2023-04-11T22:21:56.484Z,99.90
2023-04-11T22:24:30.251Z,99.90
2023-04-11T22:26:58.532Z,99.90
2023-04-11T22:29:30.449Z,99.90
2023-04-11T22:32:00.241Z,99.90
2023-04-11T22:34:29.464Z,99.90
2023-04-11T22:36:57.672Z,99.90
2023-04-11T22:39:25.820Z,99.90
2023-04-11T22:41:54.450Z,99.90
2023-04-11T22:44:22.857Z,99.90
2023-04-11T22:47:00.904Z,99.90
2023-04-11T22:49:32.216Z,99.90
2023-04-11T22:52:02.014Z,99.90
2023-04-11T22:54:30.033Z,99.90
2023-04-11T22:56:58.016Z,99.90
2023-04-11T22:59:26.409Z,99.90
2023-04-11T23:01:54.279Z,99.90
2023-04-11T23:04:22.479Z,99.90
2023-04-11T23:06:53.570Z,99.90
2023-04-11T23:09:22.118Z,99.90
2023-04-11T23:11:49.960Z,99.90
2023-04-11T23:14:18.115Z,99.90
2023-04-11T23:16:46.504Z,99.90
2023-04-11T23:19:14.452Z,99.90
2023-04-11T23:21:42.928Z,99.90
2023-04-11T23:24:13.278Z,99.90
2023-04-11T23:26:41.140Z,99.90
2023-04-11T23:29:09.397Z,99.90
2023-04-11T23:31:37.273Z,99.90
2023-04-11T23:34:05.092Z,99.90
2023-04-11T23:36:33.529Z,99.90
2023-04-11T23:39:01.922Z,99.90
2023-04-11T23:41:31.315Z,99.90
2023-04-11T23:43:59.317Z,99.90
2023-04-11T23:46:27.572Z,99.90
2023-04-11T23:48:56.178Z,99.90
2023-04-11T23:51:24.049Z,99.90
2023-04-11T23:53:52.146Z,99.90
2023-04-11T23:56:20.004Z,99.90
2023-04-11T23:58:49.137Z,99.90
